createdAt,value
2019-05-02T00:01:38.194Z,7.20
2019-05-02T00:04:06.990Z,7.20
2019-05-02T00:06:37.967Z,7.10
2019-05-02T00:09:09.136Z,7.10
2019-05-02T00:11:38.476Z,7.10
2019-05-02T00:14:07.335Z,7.10
2019-05-02T00:16:35.915Z,7.10
2019-05-02T00:19:04.383Z,7.10
2019-05-02T00:21:38.239Z,7.10
2019-05-02T00:24:04.224Z,7.10
2019-05-02T00:26:32.710Z,7.10
2019-05-02T00:29:01.343Z,7.10
2019-05-02T00:31:30.108Z,7.10
2019-05-02T00:33:58.560Z,7.00
2019-05-02T00:36:27.020Z,7.00
2019-05-02T00:38:55.511Z,7.00
2019-05-02T00:41:23.978Z,7.00
2019-05-02T00:43:52.435Z,6.90
2019-05-02T00:46:20.926Z,7.00
2019-05-02T00:48:59.504Z,7.00
2019-05-02T00:51:26.754Z,6.90
2019-05-02T00:53:54.748Z,6.90
2019-05-02T00:56:23.214Z,6.80
2019-05-02T00:58:51.665Z,6.80
2019-05-02T01:01:24.300Z,6.90
2019-05-02T01:03:53.903Z,6.80
2019-05-02T01:06:22.424Z,6.90
2019-05-02T01:08:50.918Z,6.80
2019-05-02T01:11:19.388Z,6.80
2019-05-02T01:13:50.393Z,6.80
2019-05-02T01:16:19.073Z,6.80
2019-05-02T01:18:48.546Z,6.80
2019-05-02T01:21:16.996Z,6.70
2019-05-02T01:23:45.494Z,6.60
2019-05-02T01:26:14.038Z,6.70
2019-05-02T01:28:56.505Z,6.70
2019-05-02T01:31:26.591Z,6.70
2019-05-02T01:34:17.536Z,6.60
2019-05-02T01:36:44.789Z,6.60
2019-05-02T01:39:13.512Z,6.60
2019-05-02T01:41:42.012Z,6.60
2019-05-02T01:44:11.206Z,6.60
2019-05-02T01:46:39.657Z,6.60
2019-05-02T01:49:08.220Z,6.70
2019-05-02T01:51:37.030Z,6.80
2019-05-02T01:54:10.108Z,6.70
2019-05-02T01:56:35.998Z,6.70
2019-05-02T01:59:04.587Z,6.70
2019-05-02T02:01:33.054Z,6.70
2019-05-02T02:04:01.565Z,6.70
2019-05-02T02:06:30.017Z,6.70
2019-05-02T02:08:58.472Z,6.70
2019-05-02T02:11:28.411Z,6.70
2019-05-02T02:13:57.336Z,6.60
2019-05-02T02:16:25.800Z,6.60
2019-05-02T02:19:03.989Z,6.60
2019-05-02T02:21:33.443Z,6.60
2019-05-02T02:24:03.543Z,6.60
2019-05-02T02:26:32.033Z,6.50
2019-05-02T02:29:03.138Z,6.50
2019-05-02T02:31:30.674Z,6.50
2019-05-02T02:33:59.169Z,6.40
2019-05-02T02:36:34.116Z,6.40
2019-05-02T02:38:57.890Z,6.40
2019-05-02T02:41:26.452Z,6.40
2019-05-02T02:44:00.523Z,6.40
2019-05-02T02:46:37.772Z,6.40
2019-05-02T02:49:01.275Z,6.30
2019-05-02T02:51:29.733Z,6.30
2019-05-02T02:54:04.075Z,6.30
2019-05-02T02:56:28.420Z,6.20
2019-05-02T02:58:57.025Z,6.20
2019-05-02T03:01:28.875Z,6.10
2019-05-02T03:04:01.942Z,6.00
2019-05-02T03:06:26.096Z,6.00
2019-05-02T03:08:54.789Z,6.00
2019-05-02T03:11:25.556Z,5.80
2019-05-02T03:14:05.586Z,5.80
2019-05-02T03:16:33.887Z,5.70
2019-05-02T03:19:02.592Z,5.70
2019-05-02T03:21:31.046Z,5.70
2019-05-02T03:24:03.292Z,5.70
2019-05-02T03:26:30.214Z,5.70
2019-05-02T03:29:00.726Z,5.60
2019-05-02T03:31:31.090Z,5.60
2019-05-02T03:34:01.274Z,5.70
2019-05-02T03:36:36.268Z,5.70
2019-05-02T03:39:06.955Z,5.60
2019-05-02T03:41:30.849Z,5.60
2019-05-02T03:44:10.546Z,5.50
2019-05-02T03:46:29.626Z,5.50
2019-05-02T03:49:06.086Z,5.50
2019-05-02T03:51:28.516Z,5.50
2019-05-02T03:54:06.444Z,5.50
2019-05-02T03:56:27.306Z,5.40
2019-05-02T03:58:58.311Z,5.40
2019-05-02T04:01:27.023Z,5.40
2019-05-02T04:03:56.018Z,5.40
2019-05-02T04:06:24.567Z,5.40
2019-05-02T04:08:59.638Z,5.40
2019-05-02T04:11:25.410Z,5.40
2019-05-02T04:13:55.514Z,5.40
2019-05-02T04:16:25.119Z,5.40
2019-05-02T04:18:57.785Z,5.50
2019-05-02T04:21:26.504Z,5.40
2019-05-02T04:24:07.829Z,5.40
2019-05-02T04:26:26.917Z,5.40
2019-05-02T04:28:55.377Z,5.40
2019-05-02T04:31:24.964Z,5.40
2019-05-02T04:33:54.028Z,5.30
2019-05-02T04:36:22.480Z,5.30
2019-05-02T04:38:52.509Z,5.40
2019-05-02T04:41:28.585Z,5.40
2019-05-02T04:43:57.684Z,5.50
2019-05-02T04:46:26.985Z,5.50
2019-05-02T04:48:52.954Z,5.50
2019-05-02T04:51:21.768Z,5.50
2019-05-02T04:53:50.317Z,5.50
2019-05-02T04:56:18.929Z,5.50
2019-05-02T04:58:49.501Z,5.50
2019-05-02T05:03:49.200Z,5.70
2019-05-02T05:06:18.869Z,5.70
2019-05-02T05:08:48.218Z,5.70
2019-05-02T05:11:20.733Z,5.70
2019-05-02T05:13:47.939Z,5.90
2019-05-02T05:16:18.506Z,5.90
2019-05-02T05:18:49.354Z,6.00
2019-05-02T05:21:17.967Z,6.10
2019-05-02T05:24:01.355Z,6.20
2019-05-02T05:26:29.453Z,6.30
2019-05-02T05:28:59.658Z,6.40
2019-05-02T05:31:29.170Z,6.40
2019-05-02T05:33:58.077Z,6.50
2019-05-02T05:36:32.540Z,6.50
2019-05-02T05:38:58.211Z,6.60
2019-05-02T05:41:27.803Z,6.70
2019-05-02T05:43:57.418Z,6.90
2019-05-02T05:46:28.011Z,7.10
2019-05-02T05:48:58.319Z,7.20
2019-05-02T05:51:27.746Z,7.40
2019-05-02T05:53:59.076Z,7.60
2019-05-02T05:56:27.948Z,7.60
2019-05-02T05:58:58.878Z,7.60
2019-05-02T06:01:34.360Z,7.80
2019-05-02T06:03:58.047Z,8.00
2019-05-02T06:06:27.469Z,8.10
2019-05-02T06:08:56.319Z,8.30
2019-05-02T06:11:24.766Z,8.60
2019-05-02T06:13:53.235Z,8.80
2019-05-02T06:16:21.711Z,8.90
2019-05-02T06:18:50.187Z,9.10
2019-05-02T06:21:18.676Z,9.10
2019-05-02T06:23:47.304Z,9.00
2019-05-02T06:26:16.010Z,9.10
2019-05-02T06:28:44.624Z,9.20
2019-05-02T06:31:13.074Z,9.30
2019-05-02T06:33:41.640Z,9.30
2019-05-02T06:36:10.171Z,9.40
2019-05-02T06:38:38.643Z,9.70
2019-05-02T06:41:07.111Z,9.90
2019-05-02T06:43:35.576Z,9.90
2019-05-02T06:46:15.419Z,10.10
2019-05-02T06:48:34.405Z,10.10
2019-05-02T06:51:02.864Z,10.20
2019-05-02T06:53:31.350Z,10.30
2019-05-02T06:55:59.813Z,10.40
2019-05-02T06:58:28.294Z,10.50
2019-05-02T07:00:58.936Z,10.60
2019-05-02T07:03:27.683Z,10.50
2019-05-02T07:05:58.659Z,10.70
2019-05-02T07:08:26.702Z,10.90
2019-05-02T07:10:55.841Z,10.80
2019-05-02T07:13:25.676Z,10.90
2019-05-02T07:16:15.457Z,11.00
2019-05-02T07:18:42.015Z,11.10
2019-05-02T07:21:12.081Z,11.30
2019-05-02T07:23:42.150Z,11.50
2019-05-02T07:26:15.276Z,11.70
2019-05-02T07:28:45.743Z,11.70
2019-05-02T07:31:12.133Z,11.90
2019-05-02T07:33:41.539Z,11.90
2019-05-02T07:36:10.055Z,12.10
2019-05-02T07:38:38.551Z,12.20
2019-05-02T07:41:07.153Z,12.30
2019-05-02T07:43:35.711Z,12.30
2019-05-02T07:46:04.814Z,12.30
2019-05-02T07:48:33.479Z,12.20
2019-05-02T07:51:01.940Z,12.30
2019-05-02T07:53:30.399Z,12.60
2019-05-02T07:55:58.879Z,12.90
2019-05-02T07:58:27.403Z,13.10
2019-05-02T08:00:55.901Z,13.20
2019-05-02T08:03:24.366Z,13.40
2019-05-02T08:05:54.402Z,13.40
2019-05-02T08:08:24.959Z,13.40
2019-05-02T08:10:54.741Z,13.20
2019-05-02T08:13:23.504Z,13.20
2019-05-02T08:15:52.459Z,13.30
2019-05-02T08:18:25.144Z,13.20
2019-05-02T08:20:56.031Z,13.30
2019-05-02T08:23:25.868Z,13.50
2019-05-02T08:25:51.775Z,13.70
2019-05-02T08:28:22.049Z,13.80
2019-05-02T08:30:52.173Z,14.10
2019-05-02T08:33:21.182Z,14.30
2019-05-02T08:35:49.664Z,14.00
2019-05-02T08:38:18.989Z,14.00
2019-05-02T08:40:49.713Z,14.10
2019-05-02T08:43:18.314Z,14.30
2019-05-02T08:45:46.770Z,14.40
2019-05-02T08:48:15.244Z,14.10
2019-05-02T08:50:43.710Z,14.40
2019-05-02T08:53:14.359Z,14.60
2019-05-02T08:55:45.322Z,14.40
2019-05-02T08:58:14.539Z,14.50
2019-05-02T09:00:42.794Z,14.40
2019-05-02T09:03:11.262Z,14.50
2019-05-02T09:05:45.571Z,14.50
2019-05-02T09:08:14.257Z,14.70
2019-05-02T09:10:42.221Z,14.20
2019-05-02T09:13:10.391Z,14.20
2019-05-02T09:15:40.241Z,14.60
2019-05-02T09:18:09.086Z,14.90
2019-05-02T09:20:37.544Z,14.90
2019-05-02T09:23:06.025Z,14.80
2019-05-02T09:25:34.508Z,14.90
2019-05-02T09:28:03.371Z,14.80
2019-05-02T09:30:32.722Z,15.00
2019-05-02T09:33:02.804Z,15.20
2019-05-02T09:35:32.850Z,14.90
2019-05-02T09:38:01.824Z,15.00
2019-05-02T09:40:31.914Z,15.10
2019-05-02T09:43:02.767Z,15.30
2019-05-02T09:45:36.869Z,15.20
2019-05-02T09:48:07.103Z,15.50
2019-05-02T09:50:34.778Z,16.00
2019-05-02T09:53:03.018Z,16.10
2019-05-02T09:55:31.879Z,15.20
2019-05-02T09:58:02.488Z,14.70
2019-05-02T10:00:38.340Z,14.70
2019-05-02T10:03:07.022Z,14.40
2019-05-02T10:05:35.578Z,14.50
2019-05-02T10:08:06.886Z,14.30
2019-05-02T10:10:37.190Z,14.20
2019-05-02T10:13:06.328Z,14.30
2019-05-02T10:15:34.827Z,14.20
2019-05-02T10:18:10.657Z,14.10
2019-05-02T10:20:36.504Z,14.00
2019-05-02T10:23:05.456Z,13.80
2019-05-02T10:25:38.736Z,13.60
2019-05-02T10:28:05.346Z,13.60
2019-05-02T10:30:36.083Z,13.50
2019-05-02T10:33:04.905Z,13.50
2019-05-02T10:35:40.379Z,13.40
2019-05-02T10:38:09.427Z,13.50
2019-05-02T10:40:35.423Z,13.30
2019-05-02T10:43:03.893Z,13.40
2019-05-02T10:45:32.771Z,13.50
2019-05-02T10:48:02.277Z,13.60
2019-05-02T10:50:32.957Z,13.50
2019-05-02T10:53:03.549Z,13.50
2019-05-02T10:55:33.221Z,13.60
2019-05-02T10:58:02.065Z,13.50
2019-05-02T11:00:32.676Z,13.40
2019-05-02T11:03:19.262Z,13.60
2019-05-02T11:05:48.662Z,13.70
2019-05-02T11:08:17.137Z,13.70
2019-05-02T11:10:45.937Z,13.50
2019-05-02T11:13:28.267Z,13.40
2019-05-02T11:16:14.746Z,13.30
2019-05-02T11:18:56.569Z,13.20
2019-05-02T11:21:25.103Z,13.30
2019-05-02T11:23:53.609Z,13.30
2019-05-02T11:26:25.087Z,13.40
2019-05-02T11:28:52.382Z,13.60
2019-05-02T11:31:21.886Z,13.70
2019-05-02T11:33:52.712Z,13.80
2019-05-02T11:36:22.317Z,13.60
2019-05-02T11:38:58.976Z,13.60
2019-05-02T11:41:22.384Z,13.50
2019-05-02T11:43:54.102Z,13.40
2019-05-02T11:46:22.094Z,13.20
2019-05-02T11:48:56.241Z,13.00
2019-05-02T11:51:22.660Z,12.90
2019-05-02T11:53:52.642Z,12.90
2019-05-02T11:56:22.244Z,12.90
2019-05-02T11:58:52.879Z,12.80
2019-05-02T12:01:34.577Z,12.90
2019-05-02T12:03:52.660Z,13.10
2019-05-02T12:06:22.512Z,13.30
2019-05-02T12:08:52.584Z,13.20
2019-05-02T12:11:22.847Z,13.10
2019-05-02T12:13:56.603Z,13.10
2019-05-02T12:16:22.860Z,13.00
2019-05-02T12:18:53.829Z,12.90
2019-05-02T12:21:22.886Z,13.00
2019-05-02T12:23:52.761Z,13.10
2019-05-02T12:26:22.200Z,13.10
2019-05-02T12:28:52.694Z,13.10
2019-05-02T12:31:27.082Z,13.00
2019-05-02T12:33:56.445Z,13.10
2019-05-02T12:36:24.895Z,13.10
2019-05-02T12:38:53.647Z,13.10
2019-05-02T12:41:25.022Z,13.00
2019-05-02T12:43:52.609Z,12.80
2019-05-02T12:46:22.189Z,12.80
2019-05-02T12:48:51.944Z,13.00
2019-05-02T12:51:22.586Z,12.90
2019-05-02T12:53:52.860Z,12.80
2019-05-02T12:56:22.865Z,12.80
2019-05-02T12:58:52.941Z,12.70
2019-05-02T13:01:22.063Z,12.90
2019-05-02T13:04:02.792Z,13.00
2019-05-02T13:06:32.753Z,12.90
2019-05-02T13:09:03.159Z,13.10
2019-05-02T13:11:36.881Z,12.90
2019-05-02T13:14:04.366Z,12.70
2019-05-02T13:16:33.520Z,12.60
2019-05-02T13:19:06.027Z,12.50
2019-05-02T13:21:42.474Z,12.60
2019-05-02T13:24:13.489Z,12.60
2019-05-02T13:26:42.930Z,12.50
2019-05-02T13:29:11.860Z,12.40
2019-05-02T13:31:44.968Z,12.40
2019-05-02T13:34:15.100Z,12.30
2019-05-02T13:36:48.523Z,12.20
2019-05-02T13:39:23.115Z,12.30
2019-05-02T13:41:52.172Z,12.30
2019-05-02T13:44:22.650Z,12.40
2019-05-02T13:46:53.462Z,12.40
2019-05-02T13:49:22.009Z,12.40
2019-05-02T13:51:52.111Z,12.50
2019-05-02T13:54:22.165Z,12.50
2019-05-02T13:56:52.683Z,12.70
2019-05-02T13:59:22.187Z,12.80
2019-05-02T14:01:52.655Z,12.80
2019-05-02T14:04:23.265Z,12.70
2019-05-02T14:06:52.871Z,12.70
2019-05-02T14:09:32.514Z,12.70
2019-05-02T14:12:05.741Z,12.70
2019-05-02T14:14:34.212Z,12.80
2019-05-02T14:17:03.135Z,12.80
2019-05-02T14:19:32.023Z,12.70
2019-05-02T14:22:00.557Z,12.70
2019-05-02T14:24:29.190Z,12.90
2019-05-02T14:26:57.715Z,12.80
2019-05-02T14:29:26.171Z,12.90
2019-05-02T14:31:54.935Z,12.80
2019-05-02T14:34:36.926Z,12.80
2019-05-02T14:37:05.410Z,12.90
2019-05-02T14:39:33.862Z,13.00
2019-05-02T14:42:02.328Z,13.30
2019-05-02T14:44:59.800Z,13.30
2019-05-02T14:47:02.152Z,13.40
2019-05-02T14:49:32.104Z,13.30
2019-05-02T14:52:06.740Z,13.40
2019-05-02T14:54:32.528Z,13.50
2019-05-02T14:57:05.356Z,13.50
2019-05-02T14:59:33.839Z,13.60
2019-05-02T15:02:07.442Z,13.50
2019-05-02T15:04:38.228Z,13.30
2019-05-02T15:07:05.319Z,13.30
2019-05-02T15:09:36.050Z,13.20
2019-05-02T15:12:14.104Z,13.20
2019-05-02T15:14:35.243Z,13.20
2019-05-02T15:17:04.566Z,13.20
2019-05-02T15:19:33.381Z,13.20
2019-05-02T15:22:02.356Z,13.00
2019-05-02T15:24:33.319Z,13.00
2019-05-02T15:27:05.552Z,12.80
2019-05-02T15:29:32.149Z,12.70
2019-05-02T15:32:14.508Z,12.70
2019-05-02T15:35:02.501Z,12.60
2019-05-02T15:37:32.138Z,12.60
2019-05-02T15:42:33.259Z,12.50
2019-05-02T15:45:05.148Z,12.60
2019-05-02T15:47:32.086Z,12.60
2019-05-02T15:50:02.845Z,12.50
2019-05-02T15:52:42.016Z,12.50
2019-05-02T15:55:11.604Z,12.60
2019-05-02T15:57:43.729Z,12.70
2019-05-02T16:00:17.162Z,12.80
2019-05-02T16:02:43.376Z,12.70
2019-05-02T16:05:12.272Z,12.90
2019-05-02T16:07:43.313Z,13.00
2019-05-02T16:10:13.191Z,13.10
2019-05-02T16:12:43.490Z,13.20
2019-05-02T16:15:18.175Z,13.20
2019-05-02T16:17:42.904Z,13.20
2019-05-02T16:20:13.568Z,13.20
2019-05-02T16:22:46.342Z,13.40
2019-05-02T16:25:12.759Z,13.50
2019-05-02T16:27:47.520Z,13.50
2019-05-02T16:30:19.353Z,13.60
2019-05-02T16:32:52.103Z,13.80
2019-05-02T16:35:22.243Z,13.80
2019-05-02T16:37:54.438Z,13.60
2019-05-02T16:40:29.426Z,13.40
2019-05-02T16:42:51.944Z,13.20
2019-05-02T16:45:22.247Z,13.20
2019-05-02T16:47:59.054Z,13.20
2019-05-02T16:50:22.890Z,13.30
2019-05-02T16:52:53.158Z,13.30
2019-05-02T16:55:26.529Z,13.20
2019-05-02T16:57:56.631Z,13.20
2019-05-02T17:00:24.478Z,13.20
2019-05-02T17:02:53.141Z,13.20
2019-05-02T17:05:22.107Z,13.20
2019-05-02T17:07:52.953Z,13.30
2019-05-02T17:10:26.170Z,13.40
2019-05-02T17:12:57.662Z,13.50
2019-05-02T17:15:35.612Z,13.50
2019-05-02T17:18:12.941Z,13.50
2019-05-02T17:20:35.772Z,13.60
2019-05-02T17:23:07.643Z,13.70
2019-05-02T17:25:34.602Z,13.60
2019-05-02T17:28:08.392Z,13.40
2019-05-02T17:30:38.900Z,13.40
2019-05-02T17:33:07.110Z,13.20
2019-05-02T17:35:35.156Z,13.20
2019-05-02T17:38:03.927Z,13.10
2019-05-02T17:40:32.462Z,13.20
2019-05-02T17:43:03.055Z,13.20
2019-05-02T17:45:33.550Z,13.10
2019-05-02T17:48:01.655Z,13.10
2019-05-02T17:50:49.509Z,13.00
2019-05-02T17:53:18.689Z,13.10
2019-05-02T17:55:47.212Z,13.00
2019-05-02T17:58:16.662Z,12.80
2019-05-02T18:00:47.424Z,12.80
2019-05-02T18:03:17.281Z,12.70
2019-05-02T18:05:45.783Z,12.60
2019-05-02T18:08:14.875Z,12.60
2019-05-02T18:10:43.570Z,12.60
2019-05-02T18:13:12.238Z,12.50
2019-05-02T18:15:41.707Z,12.50
2019-05-02T18:18:10.411Z,12.40
2019-05-02T18:20:42.706Z,12.30
2019-05-02T18:23:09.171Z,12.40
2019-05-02T18:25:37.626Z,12.40
2019-05-02T18:28:06.196Z,12.30
2019-05-02T18:30:34.761Z,12.40
2019-05-02T18:33:07.058Z,12.20
2019-05-02T18:35:37.361Z,12.20
2019-05-02T18:38:04.585Z,12.10
2019-05-02T18:40:33.277Z,11.90
2019-05-02T18:43:05.210Z,11.90
2019-05-02T18:45:32.045Z,11.80
2019-05-02T18:48:05.202Z,11.80
2019-05-02T18:50:41.324Z,11.80
2019-05-02T18:53:07.285Z,11.80
2019-05-02T18:55:36.303Z,11.60
2019-05-02T18:58:06.042Z,11.50
2019-05-02T19:00:39.284Z,11.50
2019-05-02T19:03:12.021Z,11.40
2019-05-02T19:05:37.735Z,11.30
2019-05-02T19:08:06.693Z,11.20
2019-05-02T19:10:37.143Z,11.20
2019-05-02T19:13:06.147Z,11.20
2019-05-02T19:15:39.638Z,11.10
2019-05-02T19:18:10.632Z,11.00
2019-05-02T19:20:39.096Z,10.90
2019-05-02T19:23:07.688Z,10.90
2019-05-02T19:25:36.147Z,10.90
2019-05-02T19:28:06.359Z,10.80
2019-05-02T19:30:36.461Z,10.70
2019-05-02T19:33:07.837Z,10.70
2019-05-02T19:35:37.545Z,10.60
2019-05-02T19:38:05.967Z,10.70
2019-05-02T19:40:34.497Z,10.60
2019-05-02T19:43:07.539Z,10.40
2019-05-02T19:45:33.264Z,10.40
2019-05-02T19:48:02.674Z,10.30
2019-05-02T19:50:43.116Z,10.20
2019-05-02T19:53:14.909Z,10.20
2019-05-02T19:55:37.648Z,10.10
2019-05-02T19:58:06.889Z,10.00
2019-05-02T20:00:36.527Z,10.00
2019-05-02T20:03:06.371Z,10.10
2019-05-02T20:05:34.934Z,9.90
2019-05-02T20:08:03.530Z,9.90
2019-05-02T20:10:32.327Z,9.90
2019-05-02T20:13:03.111Z,9.90
2019-05-02T20:15:32.976Z,9.90
2019-05-02T20:18:04.618Z,9.90
2019-05-02T20:20:40.529Z,9.90
2019-05-02T20:23:15.506Z,9.80
2019-05-02T20:25:39.221Z,9.70
2019-05-02T20:28:07.994Z,9.70
2019-05-02T20:30:36.500Z,9.70
2019-05-02T20:33:05.370Z,9.60
2019-05-02T20:35:34.050Z,9.60
2019-05-02T20:38:02.522Z,9.60
2019-05-02T20:40:34.794Z,9.60
2019-05-02T20:43:03.367Z,9.70
2019-05-02T20:45:32.297Z,9.60
2019-05-02T20:48:02.197Z,9.50
2019-05-02T20:50:31.837Z,9.40
2019-05-02T20:53:01.921Z,9.30
2019-05-02T20:55:32.283Z,9.20
2019-05-02T20:58:02.136Z,9.10
2019-05-02T21:00:32.416Z,9.10
2019-05-02T21:03:02.657Z,9.00
2019-05-02T21:05:35.936Z,8.90
2019-05-02T21:08:06.861Z,8.90
2019-05-02T21:10:37.139Z,8.80
2019-05-02T21:13:06.003Z,8.70
2019-05-02T21:15:34.724Z,8.70
2019-05-02T21:18:03.375Z,8.60
2019-05-02T21:20:32.553Z,8.50
2019-05-02T21:23:01.965Z,8.50
2019-05-02T21:25:32.583Z,8.50
2019-05-02T21:28:02.787Z,8.40
2019-05-02T21:30:32.270Z,8.40
2019-05-02T21:33:02.790Z,8.30
2019-05-02T21:35:31.990Z,8.20
2019-05-02T21:38:00.859Z,8.20
2019-05-02T21:40:29.421Z,8.20
2019-05-02T21:42:58.034Z,8.20
2019-05-02T21:45:26.609Z,8.10
2019-05-02T21:47:55.198Z,8.10
2019-05-02T21:50:25.530Z,8.00
2019-05-02T21:52:55.760Z,8.00
2019-05-02T21:55:25.983Z,8.00
2019-05-02T21:57:54.613Z,8.00
2019-05-02T22:00:26.675Z,7.90
2019-05-02T22:02:55.263Z,7.90
2019-05-02T22:05:23.947Z,7.90
2019-05-02T22:07:52.520Z,7.90
2019-05-02T22:10:22.727Z,7.80
2019-05-02T22:12:51.686Z,7.80
2019-05-02T22:15:21.949Z,7.80
2019-05-02T22:17:52.256Z,7.80
2019-05-02T22:20:22.873Z,7.80
2019-05-02T22:22:52.022Z,7.80
2019-05-02T22:25:22.165Z,7.70
2019-05-02T22:27:53.907Z,7.70
2019-05-02T22:30:21.931Z,7.70
2019-05-02T22:32:51.648Z,7.60
2019-05-02T22:35:21.699Z,7.60
2019-05-02T22:37:52.008Z,7.60
2019-05-02T22:40:21.826Z,7.70
2019-05-02T22:42:52.263Z,7.70
2019-05-02T22:45:21.777Z,7.70
2019-05-02T22:47:52.054Z,7.80
2019-05-02T22:50:22.048Z,7.80
2019-05-02T22:52:52.237Z,7.90
2019-05-02T22:55:22.571Z,8.10
2019-05-02T22:57:51.806Z,8.20
2019-05-02T23:00:21.647Z,8.30
2019-05-02T23:02:52.351Z,8.30
2019-05-02T23:05:20.599Z,8.30
2019-05-02T23:07:49.239Z,8.40
2019-05-02T23:10:17.821Z,8.40
2019-05-02T23:12:46.460Z,8.50
2019-05-02T23:15:15.276Z,8.50
2019-05-02T23:17:43.860Z,8.60
2019-05-02T23:20:12.938Z,8.60
2019-05-02T23:22:41.869Z,8.50
2019-05-02T23:25:28.807Z,8.50
2019-05-02T23:28:02.488Z,8.50
2019-05-02T23:30:31.796Z,8.40
2019-05-02T23:33:02.315Z,8.40
2019-05-02T23:35:31.975Z,8.30
2019-05-02T23:38:02.139Z,8.20
2019-05-02T23:40:30.858Z,8.10
2019-05-02T23:42:59.507Z,8.00
2019-05-02T23:45:28.238Z,7.90
2019-05-02T23:47:56.854Z,7.80
2019-05-02T23:50:25.438Z,7.80
2019-05-02T23:52:54.081Z,7.70
2019-05-02T23:55:22.994Z,7.70
2019-05-02T23:57:52.318Z,7.70
